Time;durP1;ratioP1;P1;durP2;ratioP2;P2;SDS_P1;SDS_P2;PMS_P1;PMS_P2;Temp;Humidity;BMP_temperature;BMP_pressure;BME280_temperature;BME280_humidity;BME280_pressure;Samples;Min_cycle;Max_cycle;Signal;HPM_P1;HPM_P2
2021/08/20 00:00:00;;;;;;;15.33;10.87;;;;;;;12.58;94.58;101367.25;2106257;28;20023;-63
2021/08/20 00:01:01;;;;;;;13.87;9.63;;;;;;;12.57;94.28;101368.19;2106745;28;20546;-63
2021/08/20 00:02:01;;;;;;;15.48;10.90;;;;;;;12.54;94.54;101373.56;2097718;28;20149;-63
2021/08/20 00:03:01;;;;;;;12.80;11.30;;;;;;;12.54;94.29;101368.31;2097883;28;20029;-62
2021/08/20 00:04:03;;;;;;;14.68;12.55;;;;;;;12.54;94.21;101372.69;2106767;28;20028;-63
2021/08/20 00:05:06;;;;;;;13.60;11.98;;;;;;;12.54;94.10;101378.78;2097859;28;20021;-64
2021/08/20 00:06:06;;;;;;;15.55;12.15;;;;;;;12.56;94.64;101379.56;2097673;28;20035;-63
2021/08/20 00:07:06;;;;;;;15.27;12.73;;;;;;;12.59;94.58;101368.97;2097798;28;20029;-63
2021/08/20 00:08:06;;;;;;;14.97;10.53;;;;;;;12.57;94.38;101360.34;2106630;28;20056;-62
2021/08/20 00:09:09;;;;;;;14.23;11.87;;;;;;;12.58;94.67;101364.66;2106724;28;20034;-63
2021/08/20 00:10:10;;;;;;;12.93;11.10;;;;;;;12.58;94.57;101364.66;2106782;28;20129;-63
2021/08/20 00:11:11;;;;;;;;;;;;;;;12.58;94.68;101369.88;2107047;28;20039;-62
2021/08/20 00:12:11;;;;;;;11.52;9.75;;;;;;;12.58;94.44;101364.66;2106661;28;20288;-62
2021/08/20 00:13:11;;;;;;;12.07;10.40;;;;;;;12.58;94.65;101364.66;2107006;28;20081;-63
2021/08/20 00:14:15;;;;;;;13.30;10.67;;;;;;;12.60;94.61;101372.44;2106734;28;20503;-63
2021/08/20 00:15:15;;;;;;;13.85;8.65;;;;;;;12.58;94.84;101362.03;2106701;28;20016;-63
2021/08/20 00:16:15;;;;;;;12.03;9.20;;;;;;;12.60;94.72;101361.97;2106729;28;20027;-63
2021/08/20 00:17:16;;;;;;;12.27;10.67;;;;;;;12.57;94.76;101360.34;2106602;28;20009;-63
2021/08/20 00:18:16;;;;;;;14.93;10.73;;;;;;;12.57;94.75;101368.19;2106709;28;20027;-63
2021/08/20 00:19:16;;;;;;;10.73;8.67;;;;;;;12.55;94.33;101359.53;2106776;28;20141;-63
2021/08/20 00:20:17;;;;;;;14.80;11.70;;;;;;;12.56;94.87;101361.22;2097671;28;20398;-62
2021/08/20 00:21:17;;;;;;;18.03;9.57;;;;;;;12.56;94.96;101363.84;2097640;28;20021;-63
2021/08/20 00:22:17;;;;;;;14.83;11.00;;;;;;;12.57;94.67;101362.97;2106163;28;20049;-63
2021/08/20 00:23:18;;;;;;;14.50;11.80;;;;;;;12.57;94.69;101368.19;2106745;28;20028;-63
2021/08/20 00:24:18;;;;;;;16.90;12.00;;;;;;;12.57;94.70;101362.09;2106637;28;20026;-62
2021/08/20 00:25:18;;;;;;;12.20;10.53;;;;;;;12.58;94.76;101364.66;2106748;28;20285;-63
2021/08/20 00:26:19;;;;;;;12.90;9.67;;;;;;;12.59;94.86;101362.88;2097700;28;20103;-62
2021/08/20 00:27:19;;;;;;;11.87;10.13;;;;;;;12.60;94.91;101365.41;2097770;28;20285;-63
2021/08/20 00:28:19;;;;;;;14.73;11.97;;;;;;;12.62;94.70;101360.97;2106572;28;20058;-63
2021/08/20 00:29:20;;;;;;;12.37;10.80;;;;;;;12.66;94.66;101366.09;2106582;28;20055;-63
2021/08/20 00:30:20;;;;;;;14.97;10.57;;;;;;;12.67;94.83;101362.53;2106704;28;20043;-62
2021/08/20 00:31:20;;;;;;;14.80;13.40;;;;;;;12.67;94.55;101367.78;2106679;28;20058;-63
2021/08/20 00:32:21;;;;;;;12.13;10.48;;;;;;;12.69;94.84;101361.56;2106583;28;20534;-62
2021/08/20 00:33:21;;;;;;;13.53;12.03;;;;;;;12.70;94.84;101362.41;2106703;28;20493;-63
2021/08/20 00:34:21;;;;;;;14.03;11.33;;;;;;;12.71;94.78;101362.34;2106734;28;20453;-63
2021/08/20 00:35:22;;;;;;;16.93;12.13;;;;;;;12.75;94.61;101365.69;2106722;28;20104;-63
2021/08/20 00:36:22;;;;;;;14.47;11.57;;;;;;;12.76;94.77;101367.38;2106738;28;20473;-63
2021/08/20 00:37:22;;;;;;;15.80;11.13;;;;;;;12.78;94.90;101360.31;2106566;28;20065;-63
2021/08/20 00:38:22;;;;;;;14.43;12.83;;;;;;;12.83;94.78;101363.56;2106594;28;20473;-63
2021/08/20 00:39:24;;;;;;;14.20;11.53;;;;;;;12.86;94.68;101362.59;2097661;28;20359;-63
2021/08/20 00:40:24;;;;;;;14.45;10.25;;;;;;;12.89;94.68;101365.06;2097677;28;20027;-63
2021/08/20 00:41:24;;;;;;;18.37;12.80;;;;;;;12.94;95.00;101359.66;2106681;28;20016;-62
2021/08/20 00:42:25;;;;;;;15.10;13.50;;;;;;;12.96;94.76;101358.66;2106687;28;20024;-62
2021/08/20 00:43:26;;;;;;;15.85;13.45;;;;;;;13.00;95.07;101359.34;2106241;28;20017;-62
2021/08/20 00:44:26;;;;;;;17.88;12.65;;;;;;;13.01;94.87;101361.09;2106618;28;20558;-64
2021/08/20 00:45:27;;;;;;;14.15;12.30;;;;;;;13.02;94.76;101365.41;2106632;28;20078;-64
2021/08/20 00:46:27;;;;;;;19.07;14.30;;;;;;;13.06;94.82;101363.47;2097681;28;20150;-63
2021/08/20 00:47:28;;;;;;;17.35;15.40;;;;;;;13.07;95.13;101355.56;2097622;28;20437;-63
2021/08/20 00:48:28;;;;;;;18.80;15.50;;;;;;;13.08;94.63;101352.03;2106659;28;20073;-64
2021/08/20 00:49:29;;;;;;;14.70;13.20;;;;;;;13.10;94.71;101350.19;2097556;28;20021;-64
2021/08/20 00:50:30;;;;;;;17.90;15.30;;;;;;;13.10;94.85;101349.31;2097711;28;20501;-62
2021/08/20 00:51:36;;;;;;;20.30;14.45;;;;;;;13.10;94.61;101355.41;2106625;28;20117;-63
2021/08/20 00:52:36;;;;;;;17.77;14.32;;;;;;;13.12;94.56;101350.97;2106590;28;20043;-63
2021/08/20 00:53:36;;;;;;;18.20;14.20;;;;;;;13.16;94.23;101345.56;2106593;28;20039;-62
2021/08/20 00:54:37;;;;;;;18.73;13.63;;;;;;;13.17;93.87;101339.44;2106659;28;20658;-63
2021/08/20 00:55:38;;;;;;;17.02;14.25;;;;;;;13.21;93.75;101346.22;2106631;28;20472;-63
2021/08/20 00:56:40;;;;;;;18.43;15.27;;;;;;;13.21;94.01;101346.22;2097599;28;20416;-63
2021/08/20 00:57:44;;;;;;;16.40;14.65;;;;;;;13.22;93.79;101348.78;2097861;28;20028;-63
2021/08/20 00:58:49;;;;;;;17.63;15.75;;;;;;;13.21;93.18;101346.22;2106506;28;20027;-63
2021/08/20 00:59:49;;;;;;;20.90;15.45;;;;;;;13.20;93.00;101344.50;2106555;28;20063;-64
2021/08/20 01:00:50;;;;;;;18.13;15.23;;;;;;;13.18;93.27;101352.47;2106644;28;20078;-63
2021/08/20 01:01:50;;;;;;;17.55;15.27;;;;;;;13.17;92.89;101344.66;2106582;28;20032;-62
2021/08/20 01:02:51;;;;;;;17.13;15.10;;;;;;;13.16;92.99;101348.19;2106626;28;20441;-63
2021/08/20 01:03:51;;;;;;;19.60;15.73;;;;;;;13.14;92.82;101343.88;2106618;28;20028;-63
2021/08/20 01:04:52;;;;;;;17.97;13.20;;;;;;;13.14;92.73;101336.00;2106585;28;20043;-62
2021/08/20 01:05:54;;;;;;;20.15;15.65;;;;;;;13.14;92.54;101336.00;2106531;28;20039;-63
2021/08/20 01:06:55;;;;;;;19.83;15.18;;;;;;;13.14;92.39;101340.44;2106484;28;20020;-64
2021/08/20 01:07:55;;;;;;;19.10;14.30;;;;;;;13.14;92.34;101341.25;2106504;28;20020;-64
2021/08/20 01:08:56;;;;;;;20.57;14.97;;;;;;;13.14;92.66;101341.25;2106406;28;20073;-62
2021/08/20 01:09:57;;;;;;;;;;;;;;;13.16;92.47;101337.72;2106875;28;20035;-63
2021/08/20 01:10:59;;;;;;;17.13;13.57;;;;;;;13.16;92.49;101342.94;2106533;28;19907;-63
2021/08/20 01:11:59;;;;;;;16.38;13.70;;;;;;;13.14;92.45;101341.25;2106439;28;20054;-63
2021/08/20 01:13:00;;;;;;;15.47;13.67;;;;;;;13.15;92.45;101336.88;2106535;28;20492;-63
2021/08/20 01:14:01;;;;;;;17.67;14.73;;;;;;;13.14;91.98;101336.00;2106513;28;20032;-63
2021/08/20 01:15:01;;;;;;;15.18;13.18;;;;;;;13.18;92.17;101333.25;2106488;28;20435;-63
2021/08/20 01:16:02;;;;;;;16.20;13.97;;;;;;;13.20;92.36;101336.66;2106494;28;20036;-62
2021/08/20 01:17:05;;;;;;;15.38;13.52;;;;;;;13.21;92.01;101341.81;2106525;28;20055;-64
2021/08/20 01:18:05;;;;;;;15.82;14.00;;;;;;;13.21;91.86;101336.56;2106556;28;20038;-63
2021/08/20 01:19:05;;;;;;;15.50;13.63;;;;;;;13.24;91.89;101338.22;2098849;28;20024;-63
2021/08/20 01:20:09;;;;;;;17.27;14.17;;;;;;;13.23;91.46;101333.88;2099124;28;20102;-64
2021/08/20 01:21:15;;;;;;;16.45;14.05;;;;;;;13.23;91.34;101337.38;2107941;28;20057;-63
2021/08/20 01:22:15;;;;;;;15.10;12.30;;;;;;;13.26;91.24;101333.75;2098642;28;20028;-63
2021/08/20 01:23:21;;;;;;;13.73;12.33;;;;;;;13.28;91.33;101339.78;2099099;28;20020;-62
2021/08/20 01:24:21;;;;;;;17.38;13.25;;;;;;;13.29;91.15;101344.09;2108027;28;20103;-63
2021/08/20 01:25:22;;;;;;;21.65;14.73;;;;;;;13.26;90.63;101339.84;2107964;28;20020;-62
2021/08/20 01:26:23;;;;;;;16.10;14.00;;;;;;;13.24;90.64;101335.63;2098978;28;20074;-63
2021/08/20 01:27:23;;;;;;;13.75;10.95;;;;;;;13.24;90.80;101335.63;2099072;28;20472;-63
2021/08/20 01:28:24;;;;;;;17.57;13.00;;;;;;;13.24;90.48;101333.81;2107886;28;20103;-64
2021/08/20 01:29:25;;;;;;;13.77;12.25;;;;;;;13.22;90.62;101334.81;2107898;28;20016;-62
2021/08/20 01:30:25;;;;;;;18.27;12.10;;;;;;;13.22;90.60;101333.06;2098949;28;20458;-63
2021/08/20 01:31:26;;;;;;;15.50;13.13;;;;;;;13.20;90.57;101332.25;2098991;28;20143;-62
2021/08/20 01:32:27;;;;;;;14.57;13.07;;;;;;;13.20;90.52;101336.66;2107828;28;20103;-62
2021/08/20 01:33:28;;;;;;;16.65;13.25;;;;;;;13.19;90.72;101334.94;2107930;28;20024;-64
2021/08/20 01:34:28;;;;;;;15.02;13.48;;;;;;;13.16;90.32;101333.31;2107920;28;20020;-63
2021/08/20 01:35:29;;;;;;;17.53;12.43;;;;;;;13.15;90.58;101336.88;2107959;28;20054;-64
2021/08/20 01:36:29;;;;;;;14.52;12.45;;;;;;;13.13;90.34;101339.56;2107872;28;20047;-63
2021/08/20 01:37:29;;;;;;;15.13;13.30;;;;;;;13.14;90.50;101333.41;2107945;28;20016;-64
2021/08/20 01:38:31;;;;;;;14.10;11.93;;;;;;;13.13;90.62;101334.31;2098854;28;20081;-62
2021/08/20 01:39:31;;;;;;;14.43;12.80;;;;;;;13.12;90.36;101343.13;2099158;28;20454;-63
2021/08/20 01:40:31;;;;;;;18.00;12.03;;;;;;;13.12;90.76;101342.25;2107883;28;20012;-63
2021/08/20 01:41:32;;;;;;;13.40;11.20;;;;;;;13.12;90.83;101340.50;2107877;28;20469;-62
2021/08/20 01:42:32;;;;;;;13.20;11.82;;;;;;;13.13;90.46;101334.31;2107756;28;20056;-65
2021/08/20 01:43:33;;;;;;;15.57;11.50;;;;;;;13.16;90.66;101335.09;2107792;28;20416;-63
2021/08/20 01:44:33;;;;;;;12.60;11.27;;;;;;;13.17;90.45;101340.25;2098820;28;20024;-63
2021/08/20 01:45:33;;;;;;;12.40;11.20;;;;;;;13.18;90.63;101339.38;2098870;28;20027;-63
2021/08/20 01:46:34;;;;;;;14.27;11.10;;;;;;;13.16;90.32;101338.56;2107632;28;20031;-64
2021/08/20 01:47:34;;;;;;;12.83;11.53;;;;;;;13.19;90.57;101348.91;2107806;28;20024;-63
2021/08/20 01:48:34;;;;;;;17.63;13.10;;;;;;;13.19;90.28;101334.94;2107842;28;20040;-62
2021/08/20 01:49:35;;;;;;;14.47;11.23;;;;;;;13.19;90.39;101342.81;2107744;28;20314;-64
2021/08/20 01:50:37;;;;;;;14.33;12.50;;;;;;;13.23;90.25;101340.00;2107734;28;20374;-62
2021/08/20 01:51:38;;;;;;;14.82;12.50;;;;;;;13.23;90.35;101332.13;2107716;28;20031;-61
2021/08/20 01:52:38;;;;;;;15.60;13.73;;;;;;;13.25;90.33;101337.31;2107864;28;20457;-62
2021/08/20 01:53:39;;;;;;;13.57;12.17;;;;;;;13.26;90.19;101346.88;2107850;28;20819;-63
2021/08/20 01:54:39;;;;;;;14.13;11.07;;;;;;;13.28;90.42;101339.78;2107838;28;20024;-63
2021/08/20 01:55:48;;;;;;;18.57;12.07;;;;;;;13.29;90.08;101338.88;2107696;28;20384;-63
2021/08/20 01:56:49;;;;;;;14.68;12.73;;;;;;;13.30;89.94;101343.19;2098640;28;20020;-63
2021/08/20 01:57:50;;;;;;;14.43;11.77;;;;;;;13.31;90.08;101342.25;2098802;28;20486;-63
2021/08/20 01:58:52;;;;;;;15.25;12.02;;;;;;;13.31;89.77;101341.41;2098683;28;20032;-63
2021/08/20 01:59:52;;;;;;;14.18;12.70;;;;;;;13.32;89.63;101340.50;2098918;28;20029;-64
2021/08/20 02:00:52;;;;;;;17.23;12.00;;;;;;;13.31;89.63;101342.25;2107758;28;20107;-63
2021/08/20 02:01:52;;;;;;;13.33;11.43;;;;;;;13.32;89.60;101348.34;2107701;28;20058;-63
2021/08/20 02:02:53;;;;;;;16.83;11.93;;;;;;;13.33;89.61;101350.91;2107731;28;20034;-62
2021/08/20 02:03:53;;;;;;;13.43;10.70;;;;;;;13.34;89.70;101349.97;2107766;28;20503;-63
2021/08/20 02:04:53;;;;;;;10.53;7.33;;;;;;;13.34;89.62;101341.28;2107594;28;20107;-63
2021/08/20 02:05:53;;;;;;;18.33;10.70;;;;;;;13.33;89.41;101342.19;2107672;28;20039;-64
2021/08/20 02:06:53;;;;;;;14.80;12.63;;;;;;;13.34;89.59;101342.13;2098409;28;20024;-62
2021/08/20 02:07:54;;;;;;;14.70;13.20;;;;;;;13.35;89.65;101348.22;2098732;28;20028;-63
2021/08/20 02:08:54;;;;;;;13.47;11.63;;;;;;;13.33;89.50;101339.56;2106786;28;20112;-65
2021/08/20 02:09:54;;;;;;;13.43;12.03;;;;;;;13.34;89.80;101347.34;2107044;28;20027;-63
2021/08/20 02:10:55;;;;;;;14.03;10.67;;;;;;;13.32;89.71;101343.09;2107602;28;20473;-63
2021/08/20 02:11:55;;;;;;;13.82;12.32;;;;;;;13.32;89.89;101343.97;2107525;28;20130;-62
2021/08/20 02:12:56;;;;;;;;;;;;;;;13.33;89.82;101347.41;2099114;28;20048;-64
2021/08/20 02:13:57;;;;;;;12.68;9.10;;;;;;;13.34;89.60;101346.53;2098551;28;19951;-63
2021/08/20 02:14:57;;;;;;;11.85;10.15;;;;;;;13.36;89.69;101342.91;2107589;28;20035;-63
2021/08/20 02:15:58;;;;;;;8.27;7.27;;;;;;;13.37;89.43;101336.72;2107542;28;20028;-62
2021/08/20 02:16:58;;;;;;;12.73;11.52;;;;;;;13.41;89.48;101341.84;2107551;28;20028;-62
2021/08/20 02:17:58;;;;;;;14.03;11.10;;;;;;;13.39;89.33;101340.13;2098495;28;20040;-64
2021/08/20 02:18:58;;;;;;;11.97;10.77;;;;;;;13.39;89.44;101345.38;2098554;28;20032;-63
2021/08/20 02:19:59;;;;;;;12.43;9.50;;;;;;;13.39;89.46;101344.53;2107499;28;20529;-64
2021/08/20 02:21:00;;;;;;;14.95;10.75;;;;;;;13.39;89.43;101340.13;2107520;28;20028;-64
2021/08/20 02:22:01;;;;;;;14.48;10.93;;;;;;;13.42;89.21;101340.91;2107540;28;20028;-62
2021/08/20 02:23:01;;;;;;;12.10;10.90;;;;;;;13.41;89.29;101344.47;2107535;28;20046;-63
2021/08/20 02:24:01;;;;;;;12.77;8.47;;;;;;;13.42;88.97;101340.91;2098421;28;20571;-63
2021/08/20 02:25:03;;;;;;;10.80;8.50;;;;;;;13.43;89.44;101339.97;2098549;28;20138;-63
2021/08/20 02:26:05;;;;;;;16.48;10.70;;;;;;;13.43;89.29;101345.22;2098463;28;20110;-63
2021/08/20 02:27:05;;;;;;;11.32;9.30;;;;;;;13.41;89.56;101341.84;2098729;28;20367;-64
2021/08/20 02:28:06;;;;;;;17.47;11.30;;;;;;;13.39;89.53;101334.88;2107460;28;20026;-63
2021/08/20 02:29:06;;;;;;;12.88;7.57;;;;;;;13.42;89.44;101338.28;2107374;28;20028;-64
2021/08/20 02:30:07;;;;;;;10.53;9.20;;;;;;;13.43;89.74;101345.22;2107565;28;20023;-64
2021/08/20 02:31:07;;;;;;;11.90;9.60;;;;;;;13.47;89.46;101344.16;2107448;28;20034;-63
2021/08/20 02:32:08;;;;;;;13.00;9.03;;;;;;;13.46;89.46;101340.72;2107543;28;20019;-64
2021/08/20 02:33:08;;;;;;;15.65;11.65;;;;;;;13.47;89.46;101331.91;2107568;28;20020;-64
2021/08/20 02:34:08;;;;;;;13.33;11.20;;;;;;;13.47;89.58;101339.78;2098346;28;20033;-64
2021/08/20 02:35:09;;;;;;;12.57;9.07;;;;;;;13.46;89.45;101335.47;2098527;28;20054;-62
2021/08/20 02:36:11;;;;;;;11.90;10.68;;;;;;;13.47;89.58;101344.16;2107350;28;20043;-62
2021/08/20 02:37:11;;;;;;;11.40;7.35;;;;;;;13.47;89.42;101346.78;2107428;28;20161;-62
2021/08/20 02:38:12;;;;;;;12.23;9.67;;;;;;;13.49;89.82;101347.59;2107400;28;20020;-63
2021/08/20 02:39:12;;;;;;;12.60;8.40;;;;;;;13.47;90.13;101342.41;2107347;28;20325;-64
2021/08/20 02:40:12;;;;;;;11.80;8.60;;;;;;;13.50;89.65;101351.91;2107391;28;20031;-62
2021/08/20 02:41:13;;;;;;;13.73;11.40;;;;;;;13.47;89.64;101341.53;2107413;28;20051;-63
2021/08/20 02:42:13;;;;;;;9.93;8.95;;;;;;;13.49;89.58;101339.75;2107400;28;20019;-63
2021/08/20 02:43:13;;;;;;;12.53;10.90;;;;;;;13.51;89.43;101343.13;2107390;28;20413;-63
2021/08/20 02:44:15;;;;;;;13.00;10.70;;;;;;;13.51;89.89;101346.59;2107317;28;20380;-63
2021/08/20 02:45:15;;;;;;;15.35;12.50;;;;;;;13.51;89.74;101344.00;2107339;28;20027;-64
2021/08/20 02:46:16;;;;;;;12.15;10.93;;;;;;;13.51;89.72;101343.13;2107251;28;20095;-63
2021/08/20 02:47:16;;;;;;;15.70;11.87;;;;;;;13.53;89.77;101343.91;2107295;28;20417;-65
2021/08/20 02:48:16;;;;;;;13.83;10.03;;;;;;;13.53;89.81;101351.78;2098252;28;20115;-63
2021/08/20 02:49:16;;;;;;;13.03;11.70;;;;;;;13.55;89.86;101349.91;2098310;28;20025;-64
2021/08/20 02:50:17;;;;;;;13.07;11.40;;;;;;;13.54;89.92;101348.22;2107246;28;20071;-64
2021/08/20 02:51:17;;;;;;;14.73;13.23;;;;;;;13.54;90.26;101343.00;2107347;28;20043;-64
2021/08/20 02:52:17;;;;;;;15.10;12.57;;;;;;;13.54;89.92;101340.38;2107455;28;20469;-64
2021/08/20 02:53:17;;;;;;;15.13;13.17;;;;;;;13.56;89.91;101351.66;2107391;28;20358;-62
2021/08/20 02:54:18;;;;;;;17.40;10.33;;;;;;;13.57;90.13;101348.09;2098301;28;20032;-63
2021/08/20 02:55:18;;;;;;;13.07;10.57;;;;;;;13.58;90.12;101346.34;2089969;28;20107;-64
2021/08/20 02:56:19;;;;;;;15.67;11.83;;;;;;;13.57;90.04;101344.59;2098266;28;20099;-63
2021/08/20 02:57:23;;;;;;;15.50;13.70;;;;;;;13.58;90.19;101349.78;2107303;28;20016;-62
2021/08/20 02:58:23;;;;;;;13.25;11.95;;;;;;;13.56;89.99;101340.28;2107179;28;20012;-64
2021/08/20 02:59:23;;;;;;;12.73;11.37;;;;;;;13.58;89.87;101343.72;2098099;28;20020;-64
2021/08/20 03:00:23;;;;;;;17.17;10.27;;;;;;;13.59;90.03;101348.84;2098315;28;20020;-63
2021/08/20 03:01:24;;;;;;;11.53;9.93;;;;;;;13.59;90.10;101346.22;2107186;28;20012;-64
2021/08/20 03:02:25;;;;;;;17.50;11.48;;;;;;;13.59;90.20;101340.16;2107110;28;20541;-63
2021/08/20 03:03:26;;;;;;;15.45;12.90;;;;;;;13.59;90.15;101345.41;2107172;28;20028;-62
2021/08/20 03:04:27;;;;;;;11.75;10.52;;;;;;;13.60;90.18;101341.84;2107200;28;20099;-64
2021/08/20 03:05:27;;;;;;;18.38;13.63;;;;;;;13.60;90.57;101342.72;2107189;28;20384;-65
2021/08/20 03:06:29;;;;;;;16.65;11.95;;;;;;;13.57;90.15;101337.59;2107246;28;20035;-64
2021/08/20 03:07:29;;;;;;;13.75;10.38;;;;;;;13.59;90.38;101345.41;2107205;28;20020;-64
2021/08/20 03:08:30;;;;;;;13.80;11.30;;;;;;;13.61;90.22;101340.91;2107201;28;20024;-63
2021/08/20 03:09:30;;;;;;;12.93;11.17;;;;;;;13.61;90.25;101336.53;2106994;28;20024;-63
2021/08/20 03:10:30;;;;;;;17.17;12.17;;;;;;;13.61;90.41;101341.78;2107121;28;20031;-63
2021/08/20 03:11:30;;;;;;;14.13;10.30;;;;;;;13.62;90.33;101340.03;2107085;28;20099;-64
2021/08/20 03:12:31;;;;;;;15.20;10.63;;;;;;;13.62;90.55;101340.84;2107166;28;20099;-63
2021/08/20 03:13:31;;;;;;;10.33;9.13;;;;;;;13.63;90.67;101344.34;2098033;28;20019;-63
2021/08/20 03:14:31;;;;;;;13.83;8.57;;;;;;;13.62;90.64;101335.59;2098118;28;20021;-63
2021/08/20 03:15:32;;;;;;;11.47;9.87;;;;;;;13.62;90.49;101346.09;2107063;28;20099;-62
2021/08/20 03:16:32;;;;;;;12.27;10.87;;;;;;;13.63;90.18;101339.94;2098069;28;20045;-62
2021/08/20 03:17:33;;;;;;;15.60;10.27;;;;;;;13.64;90.29;101339.00;2089668;28;20040;-63
2021/08/20 03:18:33;;;;;;;12.80;9.77;;;;;;;13.61;90.47;101328.66;2098078;28;20551;-63
2021/08/20 03:19:33;;;;;;;12.30;10.97;;;;;;;13.63;90.51;101334.69;2107096;28;20020;-65
2021/08/20 03:20:33;;;;;;;11.90;9.93;;;;;;;13.63;90.17;101337.31;2107072;28;20027;-64
2021/08/20 03:21:34;;;;;;;14.03;11.63;;;;;;;13.65;90.33;101329.34;2107116;28;20024;-64
2021/08/20 03:22:35;;;;;;;15.85;9.35;;;;;;;13.65;90.47;101330.22;2106998;28;20020;-64
2021/08/20 03:23:35;;;;;;;14.30;11.23;;;;;;;13.65;90.48;101332.84;2107045;28;20032;-64
2021/08/20 03:24:36;;;;;;;14.02;11.18;;;;;;;13.67;90.37;101331.91;2107034;28;20278;-63
2021/08/20 03:25:36;;;;;;;11.87;10.33;;;;;;;13.67;90.33;101334.53;2098014;28;20071;-64
2021/08/20 03:26:36;;;;;;;14.37;11.33;;;;;;;13.67;90.42;101335.41;2098087;28;20028;-62
2021/08/20 03:27:37;;;;;;;16.02;10.90;;;;;;;13.67;90.42;101332.78;2107057;28;20072;-63
2021/08/20 03:28:37;;;;;;;11.40;10.20;;;;;;;13.69;90.66;101330.06;2106935;28;20497;-65
2021/08/20 03:29:37;;;;;;;13.10;10.50;;;;;;;13.67;90.36;101326.66;2107013;28;20028;-63
2021/08/20 03:30:38;;;;;;;12.53;11.23;;;;;;;13.69;90.51;101330.06;2106988;28;20274;-64
2021/08/20 03:31:38;;;;;;;13.05;10.75;;;;;;;13.70;90.22;101326.53;2106990;28;20051;-62
2021/08/20 03:32:39;;;;;;;12.23;10.77;;;;;;;13.70;90.40;101326.53;2107051;28;20476;-63
2021/08/20 03:33:39;;;;;;;13.63;11.60;;;;;;;13.70;90.54;101331.78;2107035;28;20038;-64
2021/08/20 03:34:39;;;;;;;14.27;11.23;;;;;;;13.71;90.56;101333.47;2097844;28;20016;-63
2021/08/20 03:35:39;;;;;;;14.00;11.40;;;;;;;13.70;90.45;101329.16;2098057;28;20072;-63
2021/08/20 03:36:40;;;;;;;16.63;10.67;;;;;;;13.70;90.83;101330.00;2106950;28;20016;-62
2021/08/20 03:37:40;;;;;;;13.90;11.47;;;;;;;13.71;90.63;101336.09;2106958;28;20027;-64
2021/08/20 03:38:41;;;;;;;13.30;10.70;;;;;;;13.73;90.32;101326.38;2107005;28;20511;-64
2021/08/20 03:39:41;;;;;;;13.07;11.03;;;;;;;13.73;90.65;101331.63;2106964;28;20016;-63
2021/08/20 03:40:41;;;;;;;10.73;8.73;;;;;;;13.73;90.81;101329.88;2106891;28;20481;-65
2021/08/20 03:41:42;;;;;;;12.80;10.63;;;;;;;13.74;91.06;101328.94;2106460;28;20104;-64
2021/08/20 03:42:42;;;;;;;13.40;9.07;;;;;;;13.74;90.74;101328.94;2106957;28;20032;-64
2021/08/20 03:43:42;;;;;;;10.73;9.27;;;;;;;13.74;90.68;101328.06;2097838;28;20115;-64
2021/08/20 03:44:42;;;;;;;10.93;9.60;;;;;;;13.78;90.62;101329.63;2097987;28;20033;-64
2021/08/20 03:45:43;;;;;;;13.87;10.17;;;;;;;13.79;90.56;101326.06;2106826;28;20032;-62
2021/08/20 03:46:43;;;;;;;13.17;10.03;;;;;;;13.79;90.70;101331.31;2097884;28;20028;-63
2021/08/20 03:47:43;;;;;;;10.17;8.97;;;;;;;13.81;90.90;101328.63;2097905;28;20028;-63
2021/08/20 03:48:44;;;;;;;10.63;8.17;;;;;;;13.81;90.48;101328.63;2097797;28;20397;-63
2021/08/20 03:49:44;;;;;;;13.57;9.57;;;;;;;13.81;90.49;101329.47;2097956;28;20033;-64
2021/08/20 03:50:45;;;;;;;12.13;9.70;;;;;;;13.83;90.50;101327.66;2106897;28;20507;-64
2021/08/20 03:51:45;;;;;;;13.23;10.60;;;;;;;13.82;90.44;101325.94;2106906;28;20381;-64
2021/08/20 03:52:45;;;;;;;12.20;10.27;;;;;;;13.83;90.38;101327.66;2106848;28;20024;-64
2021/08/20 03:53:46;;;;;;;11.57;10.47;;;;;;;13.84;90.44;101329.34;2106879;28;20028;-63
2021/08/20 03:54:46;;;;;;;11.75;10.55;;;;;;;13.83;90.58;101332.91;2106865;28;20091;-63
2021/08/20 03:55:46;;;;;;;11.73;10.37;;;;;;;13.85;90.64;101331.03;2106799;28;20054;-64
2021/08/20 03:56:46;;;;;;;13.73;10.73;;;;;;;13.85;90.56;101323.16;2106905;28;20042;-63
2021/08/20 03:57:49;;;;;;;13.73;11.07;;;;;;;13.85;90.68;101330.16;2106870;28;20115;-62
2021/08/20 03:58:49;;;;;;;13.55;9.68;;;;;;;13.85;90.97;101333.66;2106673;28;20016;-63
2021/08/20 03:59:50;;;;;;;11.50;9.60;;;;;;;13.85;90.84;101324.91;2106806;28;20095;-63
2021/08/20 04:00:53;;;;;;;12.07;10.47;;;;;;;13.85;90.97;101331.03;2106847;28;20035;-62
2021/08/20 04:01:53;;;;;;;14.32;10.43;;;;;;;13.85;90.58;101336.28;2106940;28;20424;-63
2021/08/20 04:02:53;;;;;;;10.43;9.43;;;;;;;13.87;90.83;101329.19;2106913;28;20031;-63
2021/08/20 04:03:53;;;;;;;11.03;9.93;;;;;;;13.86;90.51;101326.66;2106814;28;20439;-64
2021/08/20 04:04:54;;;;;;;17.20;9.47;;;;;;;13.87;90.82;101334.44;2106918;28;20415;-64
2021/08/20 04:05:54;;;;;;;12.43;11.30;;;;;;;13.89;90.89;101329.97;2097870;28;20067;-64
2021/08/20 04:06:54;;;;;;;10.20;8.57;;;;;;;13.87;90.56;101329.19;2097920;28;20063;-64
2021/08/20 04:07:54;;;;;;;12.80;8.77;;;;;;;13.87;90.79;101334.44;2106644;28;20074;-63
2021/08/20 04:08:55;;;;;;;13.03;10.73;;;;;;;13.87;90.94;101329.19;2106757;28;20081;-63
2021/08/20 04:09:55;;;;;;;11.20;9.80;;;;;;;13.86;90.69;101327.47;2106800;28;20027;-64
2021/08/20 04:10:55;;;;;;;10.17;8.77;;;;;;;13.87;90.93;101329.19;2106712;28;20032;-63
2021/08/20 04:11:55;;;;;;;11.80;9.33;;;;;;;13.87;90.92;101334.44;2106629;28;20048;-62
2021/08/20 04:12:56;;;;;;;10.20;8.17;;;;;;;13.88;90.75;101336.13;2106777;28;20076;-64
2021/08/20 04:13:56;;;;;;;13.63;7.10;;;;;;;13.89;90.83;101331.75;2097703;28;20067;-64
2021/08/20 04:14:56;;;;;;;17.67;10.48;;;;;;;13.89;90.89;101332.56;2097881;28;20509;-65
2021/08/20 04:15:57;;;;;;;11.80;10.13;;;;;;;13.89;90.93;101327.34;2106668;28;20042;-63
2021/08/20 04:16:57;;;;;;;11.33;7.77;;;;;;;13.89;90.87;101337.81;2106752;28;20473;-63
2021/08/20 04:17:57;;;;;;;9.30;8.37;;;;;;;13.89;90.67;101337.00;2106852;28;20024;-62
2021/08/20 04:18:58;;;;;;;9.40;7.40;;;;;;;13.90;90.80;101338.69;2106817;28;20027;-63
2021/08/20 04:19:58;;;;;;;10.45;7.15;;;;;;;13.91;90.78;101337.75;2097715;28;20025;-65
2021/08/20 04:20:59;;;;;;;9.73;8.60;;;;;;;13.94;90.87;101336.75;2097853;28;20025;-64
2021/08/20 04:21:59;;;;;;;10.35;8.48;;;;;;;13.91;91.00;101335.13;2097801;28;20035;-64
2021/08/20 04:23:00;;;;;;;11.33;7.47;;;;;;;13.94;90.97;101339.38;2097737;28;20028;-63
2021/08/20 04:24:00;;;;;;;11.00;8.63;;;;;;;13.94;90.98;101335.00;2106667;28;20028;-63
2021/08/20 04:25:01;;;;;;;11.90;9.50;;;;;;;13.97;90.98;101333.97;2097736;28;20060;-63
2021/08/20 04:26:02;;;;;;;12.43;9.53;;;;;;;13.96;90.67;101332.28;2097816;28;20020;-63
2021/08/20 04:27:02;;;;;;;9.95;7.93;;;;;;;13.98;90.85;101335.69;2097787;28;20036;-63
2021/08/20 04:28:03;;;;;;;10.98;7.97;;;;;;;13.97;91.05;101337.47;2097737;28;20020;-62
2021/08/20 04:29:03;;;;;;;12.13;8.95;;;;;;;13.98;91.30;101331.28;2106422;28;20026;-66
2021/08/20 04:30:04;;;;;;;10.13;8.77;;;;;;;13.97;91.15;101328.72;2106689;28;20028;-65
2021/08/20 04:31:04;;;;;;;12.00;9.70;;;;;;;13.97;91.19;101333.97;2106758;28;20028;-64
2021/08/20 04:32:04;;;;;;;13.80;9.57;;;;;;;13.97;91.32;101333.97;2106667;28;20024;-64
2021/08/20 04:33:04;;;;;;;8.73;6.22;;;;;;;13.96;91.02;101327.03;2106849;28;20031;-63
2021/08/20 04:34:05;;;;;;;11.70;9.20;;;;;;;13.99;90.81;101332.16;2106648;28;20028;-64
2021/08/20 04:35:06;;;;;;;12.33;9.20;;;;;;;13.98;91.11;101330.44;2106626;28;20032;-64
2021/08/20 04:36:06;;;;;;;16.88;11.27;;;;;;;13.96;91.22;101327.88;2106602;28;20028;-63